Aérodrome :
LOGIN :

S'inscrire | Disclaimer

   EN    FR    IT 

 










Légende :    VFR   VFR Marginal   IFR   IFR Intensif   IFR Très Intensif
Visi : 
Plafond : 
>= 8 km
>= 3000ft
5 à 8 km
1000 à 3000 ft
1500m à 5 km
500 à 1000 ft
800 à 1500m
200 à 500 ft
< 800m
< 200 ft
Symboles :   Orages  Brouillard  Fortes neiges  Fortes précipitations  Vent > 20 kt
SIGMETs :   Divers  Orages  Givrage  Turbulence  Onde Orograph.  Cendres Volcan.







- Altitude de l'aérodrome : 112 ft
- Code IATA : KIR


EIKY - Kerry Farranfore

DERNIER METAR :
  • 121330Z 20012KT 9999 BKN036 BKN043 08/06 Q1001

METARs EXPIRÉS :
  • 121300Z 20014KT 9999 -RA FEW018 SCT036 BKN042 08/06 Q1001
  • 121230Z 19016KT 9999 -RA SCT018 SCT038 BKN044 07/05 Q1002
  • 121200Z 20011KT 9999 -RA SCT018 SCT040 BKN048 07/05 Q1003
  • 121130Z 19011KT 9000 -RA BKN018 06/05 Q1003
  • 121100Z 18012KT 9999 -RA SCT020 BKN028 06/04 Q1004

TAF TAF EIKY
Valide du 12 à 12h jusqu'au 12 à 21h UTC


121100Z 1212/1221 18014KT 9999 -RA SCT018 BKN025
BECMG 1212/1213 18015G26KT
TEMPO 1212/1214 5000 RA BKN012
BECMG 1213/1215 29015G26KT
BECMG 1217/1219 30013KT
BECMG 1219/1221 27010KT
Pas de NOTAMs connus pour ce terrain.
1 SIGMET publié pour la FIR Shannon (EISN) :
 
Turbulence forte
EISN SIGMET 02 VALID 121030/121430 EINN
EISN SHANNON FIR/UIR SEV TURB FCST WI N5210 W00549 - N5100 W00800 - N5100 W00940 - N5405 W01414 - N5431 W01030 - N5210 W00549 FL200/410 MOV E AT 15KT WKN=



MET'MAP, la Météo Aéronautique d'un coup d'oeil ! - Copyright ORBIFLY Décembre 2007 - Disclaimer

ORBIFLY MET'MAP TEAM :

Programmation & Développement : Alexandra Zaïnal
Conception & Développement : Baudouin d'Aumeries
Co-Programmation & Développement : Marc-Olivier Méhu
Soutien technique & logistique : Manuel Goepfert

Contact : metmap@orbifly.com




SOURCES & CREDITS :

   NOAA